createdAt,value
2023-03-03T00:01:10.582Z,34.63
2023-03-03T00:03:38.056Z,35.50
2023-03-03T00:06:06.049Z,42.00
2023-03-03T00:08:33.482Z,28.87
2023-03-03T00:11:03.131Z,33.33
2023-03-03T00:13:32.817Z,28.53
2023-03-03T00:16:11.727Z,29.27
2023-03-03T00:18:41.762Z,36.20
2023-03-03T00:21:16.479Z,30.17
2023-03-03T00:23:43.845Z,77.50
2023-03-03T00:26:17.423Z,63.33
2023-03-03T00:28:47.812Z,53.47
2023-03-03T00:31:17.770Z,55.50
2023-03-03T00:33:47.994Z,97.07
2023-03-03T00:36:31.705Z,93.20
2023-03-03T00:39:07.884Z,60.10
2023-03-03T00:41:37.432Z,74.80
2023-03-03T00:44:29.001Z,106.07
2023-03-03T00:46:57.341Z,48.40
2023-03-03T00:49:26.903Z,71.80
2023-03-03T00:51:54.587Z,90.27
2023-03-03T00:54:22.009Z,73.27
2023-03-03T00:56:49.420Z,127.20
2023-03-03T00:59:18.350Z,71.70
2023-03-03T01:01:45.785Z,62.47
2023-03-03T01:04:13.544Z,80.70
2023-03-03T01:06:40.867Z,59.47
2023-03-03T01:09:08.208Z,53.60
2023-03-03T01:11:35.609Z,57.40
2023-03-03T01:14:03.034Z,81.57
2023-03-03T01:16:32.666Z,93.87
2023-03-03T01:19:00.045Z,82.10
2023-03-03T01:21:27.591Z,77.67
2023-03-03T01:23:55.056Z,51.47
2023-03-03T01:26:22.467Z,41.97
2023-03-03T01:28:49.859Z,48.27
2023-03-03T01:31:18.006Z,47.73
2023-03-03T01:33:46.846Z,64.40
2023-03-03T01:36:14.214Z,51.63
2023-03-03T01:38:43.196Z,46.53
2023-03-03T01:41:10.623Z,50.23
2023-03-03T01:43:44.256Z,36.33
2023-03-03T01:46:29.464Z,56.17
2023-03-03T01:49:02.931Z,68.87
2023-03-03T01:51:31.783Z,52.20
2023-03-03T01:54:00.982Z,64.13
2023-03-03T01:56:28.727Z,86.57
2023-03-03T01:58:58.896Z,58.80
2023-03-03T02:01:27.872Z,82.20
2023-03-03T02:03:55.592Z,52.40
2023-03-03T02:06:26.681Z,60.67
2023-03-03T02:08:55.422Z,48.20
2023-03-03T02:11:24.501Z,40.87
2023-03-03T02:13:51.869Z,29.90
2023-03-03T02:16:19.313Z,63.43
2023-03-03T02:18:46.788Z,37.33
2023-03-03T02:21:16.243Z,42.67
2023-03-03T02:23:51.419Z,28.00
2023-03-03T02:26:22.688Z,44.90
2023-03-03T02:28:53.385Z,31.23
2023-03-03T02:31:22.557Z,36.87
2023-03-03T02:33:50.781Z,37.57
2023-03-03T02:36:19.640Z,35.57
2023-03-03T02:38:49.529Z,31.33
2023-03-03T02:41:19.214Z,30.93
2023-03-03T02:47:16.209Z,29.17
2023-03-03T02:49:45.124Z,33.37
2023-03-03T02:52:14.738Z,31.57
2023-03-03T02:54:45.718Z,36.73
2023-03-03T02:57:13.246Z,49.50
2023-03-03T02:59:40.588Z,39.63
2023-03-03T03:02:12.402Z,37.07
2023-03-03T03:04:41.112Z,24.87
2023-03-03T03:07:11.715Z,81.67
2023-03-03T03:09:39.276Z,33.03
2023-03-03T03:12:06.859Z,25.67
2023-03-03T03:14:35.708Z,29.03
2023-03-03T03:17:03.150Z,28.73
2023-03-03T03:19:30.510Z,31.00
2023-03-03T03:22:02.739Z,35.33
2023-03-03T03:24:32.067Z,36.87
2023-03-03T03:27:03.934Z,29.30
2023-03-03T03:29:31.373Z,30.67
2023-03-03T03:31:58.965Z,29.37
2023-03-03T03:34:26.727Z,30.33
2023-03-03T03:36:55.179Z,28.63
2023-03-03T03:39:25.833Z,32.97
2023-03-03T03:41:54.480Z,40.97
2023-03-03T03:44:22.089Z,34.03
2023-03-03T03:46:49.509Z,31.80
2023-03-03T03:49:17.305Z,40.07
2023-03-03T03:51:45.847Z,32.83
2023-03-03T03:54:16.685Z,33.20
2023-03-03T03:56:45.696Z,31.30
2023-03-03T03:59:13.114Z,30.47
2023-03-03T04:01:40.540Z,33.43
2023-03-03T04:04:07.953Z,28.10
2023-03-03T04:06:35.942Z,30.40
2023-03-03T04:09:04.697Z,32.23
2023-03-03T04:11:32.683Z,36.33
2023-03-03T04:14:01.486Z,29.33
2023-03-03T04:16:28.963Z,38.80
2023-03-03T04:18:56.593Z,35.17
2023-03-03T04:21:26.139Z,39.67
2023-03-03T04:23:55.910Z,39.03
2023-03-03T04:26:23.484Z,33.13
2023-03-03T04:28:50.873Z,31.07
2023-03-03T04:31:20.518Z,41.63
2023-03-03T04:33:49.021Z,46.33
2023-03-03T04:36:17.287Z,33.90
2023-03-03T04:38:44.682Z,29.23
2023-03-03T04:41:12.352Z,31.83
2023-03-03T04:43:40.218Z,37.70
2023-03-03T04:46:07.810Z,35.03
2023-03-03T04:48:38.417Z,48.10
2023-03-03T04:51:06.101Z,40.07
2023-03-03T04:53:36.588Z,32.33
2023-03-03T04:56:05.452Z,31.83
2023-03-03T04:58:33.028Z,32.27
2023-03-03T05:01:00.440Z,42.53
2023-03-03T05:03:29.985Z,39.23
2023-03-03T05:05:58.784Z,29.53
2023-03-03T05:08:26.155Z,38.07
2023-03-03T05:10:54.178Z,40.83
2023-03-03T05:13:21.532Z,45.17
2023-03-03T05:15:52.552Z,37.17
2023-03-03T05:18:20.031Z,69.47
2023-03-03T05:20:47.412Z,36.17
2023-03-03T05:23:16.081Z,38.87
2023-03-03T05:25:43.647Z,51.90
2023-03-03T05:28:11.949Z,35.37
2023-03-03T05:30:39.347Z,34.73
2023-03-03T05:33:07.206Z,35.83
2023-03-03T05:35:34.582Z,36.23
2023-03-03T05:38:04.347Z,42.50
2023-03-03T05:40:34.128Z,35.20
2023-03-03T05:43:01.670Z,35.97
2023-03-03T05:45:29.063Z,39.53
2023-03-03T05:47:56.454Z,29.23
2023-03-03T05:50:24.289Z,28.97
2023-03-03T05:52:52.149Z,41.17
2023-03-03T05:55:19.982Z,32.30
2023-03-03T05:57:48.698Z,40.17
2023-03-03T06:00:16.752Z,29.93
2023-03-03T06:02:44.642Z,28.50
2023-03-03T06:05:13.240Z,34.67
2023-03-03T06:07:40.908Z,28.60
2023-03-03T06:10:08.741Z,44.50
2023-03-03T06:12:39.238Z,28.63
2023-03-03T06:15:08.987Z,29.20
2023-03-03T06:17:36.574Z,27.10
2023-03-03T06:20:04.274Z,28.93
2023-03-03T06:22:31.723Z,28.37
2023-03-03T06:24:59.345Z,25.90
2023-03-03T06:27:26.720Z,30.70
2023-03-03T06:29:54.096Z,29.90
2023-03-03T06:32:22.918Z,30.60
2023-03-03T06:34:50.334Z,29.10
2023-03-03T06:37:17.749Z,28.40
2023-03-03T06:39:45.101Z,25.87
2023-03-03T06:42:12.467Z,29.00
2023-03-03T06:44:39.977Z,23.40
2023-03-03T06:47:07.536Z,25.23
2023-03-03T06:49:36.337Z,31.17
2023-03-03T06:52:10.993Z,29.43
2023-03-03T06:54:38.416Z,26.23
2023-03-03T06:57:11.350Z,28.90
2023-03-03T06:59:38.708Z,30.13
2023-03-03T07:02:13.805Z,33.23
2023-03-03T07:04:42.583Z,33.63
2023-03-03T07:07:14.634Z,32.50
2023-03-03T07:09:42.002Z,29.13
2023-03-03T07:12:12.104Z,33.73
2023-03-03T07:14:43.045Z,29.83
2023-03-03T07:17:13.166Z,31.77
2023-03-03T07:19:41.135Z,27.63
2023-03-03T07:22:15.885Z,32.97
2023-03-03T07:24:44.169Z,31.07
2023-03-03T07:27:13.324Z,28.60
2023-03-03T07:29:42.040Z,28.50
2023-03-03T07:32:17.495Z,30.00
2023-03-03T07:34:46.132Z,30.80
2023-03-03T07:37:18.560Z,25.50
2023-03-03T07:39:46.624Z,31.40
2023-03-03T07:42:21.591Z,36.27
2023-03-03T07:44:55.879Z,32.50
2023-03-03T07:47:24.895Z,29.57
2023-03-03T07:49:53.103Z,30.53
2023-03-03T07:52:32.577Z,30.43
2023-03-03T07:55:01.519Z,34.60
2023-03-03T07:57:31.471Z,26.90
2023-03-03T08:00:02.138Z,31.33
2023-03-03T08:02:40.899Z,30.63
2023-03-03T08:05:38.889Z,34.77
2023-03-03T08:08:17.784Z,25.20
2023-03-03T08:10:47.721Z,32.10
2023-03-03T08:13:18.459Z,33.87
2023-03-03T08:15:46.567Z,31.03
2023-03-03T08:18:23.114Z,32.10
2023-03-03T08:20:51.624Z,39.97
2023-03-03T08:23:20.828Z,34.67
2023-03-03T08:25:49.541Z,35.03
2023-03-03T08:28:16.924Z,37.30
2023-03-03T08:30:46.635Z,32.20
2023-03-03T08:33:14.242Z,21.80
2023-03-03T08:35:42.204Z,37.13
2023-03-03T08:38:09.926Z,32.27
2023-03-03T08:40:38.935Z,32.73
2023-03-03T08:43:06.405Z,23.87
2023-03-03T08:45:34.162Z,34.70
2023-03-03T08:48:02.443Z,30.10
2023-03-03T08:50:30.962Z,30.33
2023-03-03T08:52:58.714Z,28.10
2023-03-03T08:55:26.209Z,30.07
2023-03-03T08:57:54.932Z,30.23
2023-03-03T09:00:22.624Z,31.03
2023-03-03T09:02:50.417Z,32.27
2023-03-03T09:05:18.525Z,29.07
2023-03-03T09:07:47.848Z,28.83
2023-03-03T09:10:17.807Z,24.70
2023-03-03T09:12:48.450Z,19.73
2023-03-03T09:15:20.960Z,27.57
2023-03-03T09:17:48.730Z,22.90
2023-03-03T09:20:28.655Z,25.17
2023-03-03T09:22:56.195Z,17.33
2023-03-03T09:25:26.811Z,24.23
2023-03-03T09:27:55.281Z,30.57
2023-03-03T09:30:37.442Z,26.70
2023-03-03T09:33:20.210Z,24.20
2023-03-03T09:35:48.641Z,20.70
2023-03-03T09:38:24.399Z,30.17
2023-03-03T09:40:55.461Z,20.00
2023-03-03T09:43:27.820Z,23.50
2023-03-03T09:46:00.296Z,18.20
2023-03-03T09:48:34.416Z,21.10
2023-03-03T09:51:09.334Z,23.50
2023-03-03T09:53:43.146Z,22.33
2023-03-03T09:56:17.600Z,20.37
2023-03-03T09:58:50.691Z,21.43
2023-03-03T10:01:34.114Z,23.07
2023-03-03T10:04:20.968Z,20.60
2023-03-03T10:06:51.452Z,21.53
2023-03-03T10:09:32.355Z,20.10
2023-03-03T10:12:05.420Z,21.27
2023-03-03T10:14:47.385Z,18.77
2023-03-03T10:17:26.751Z,18.20
2023-03-03T10:20:02.827Z,19.43
2023-03-03T10:22:34.742Z,17.87
2023-03-03T10:25:05.489Z,21.37
2023-03-03T10:27:39.368Z,18.53
2023-03-03T10:30:09.627Z,16.57
2023-03-03T10:32:42.854Z,15.27
2023-03-03T10:35:19.948Z,15.33
2023-03-03T10:37:53.203Z,14.87
2023-03-03T10:40:24.321Z,14.90
2023-03-03T10:42:59.071Z,14.97
2023-03-03T10:45:35.624Z,15.60
2023-03-03T10:48:10.920Z,15.07
2023-03-03T10:50:46.249Z,14.77
2023-03-03T10:53:20.384Z,12.40
2023-03-03T10:55:53.377Z,12.30
2023-03-03T10:58:30.762Z,13.07
2023-03-03T11:01:05.077Z,15.37
2023-03-03T11:03:49.832Z,28.03
2023-03-03T11:06:20.485Z,15.43
2023-03-03T11:08:50.681Z,13.93
2023-03-03T11:11:19.128Z,14.20
2023-03-03T11:13:49.155Z,14.77
2023-03-03T11:16:22.800Z,18.33
2023-03-03T11:19:02.377Z,4.07
2023-03-03T11:21:34.098Z,13.80
2023-03-03T11:24:09.127Z,12.60
2023-03-03T11:26:45.199Z,12.43
2023-03-03T11:29:24.961Z,12.93
2023-03-03T11:31:56.681Z,6.13
2023-03-03T11:34:32.270Z,15.07
2023-03-03T11:37:05.240Z,10.03
2023-03-03T11:39:34.030Z,14.43
2023-03-03T11:42:05.364Z,12.07
2023-03-03T11:44:34.549Z,14.03
2023-03-03T11:47:04.791Z,10.70
2023-03-03T11:49:37.738Z,14.47
2023-03-03T11:52:14.510Z,14.13
2023-03-03T11:54:47.294Z,9.53
2023-03-03T11:57:19.201Z,7.83
2023-03-03T11:59:50.922Z,12.50
2023-03-03T12:02:36.102Z,11.67
2023-03-03T12:05:08.017Z,11.70
2023-03-03T12:07:41.468Z,11.17
2023-03-03T12:10:24.863Z,11.87
2023-03-03T12:12:57.444Z,10.73
2023-03-03T12:15:28.756Z,9.43
2023-03-03T12:18:06.028Z,11.17
2023-03-03T12:20:40.411Z,8.83
2023-03-03T12:23:17.872Z,8.30
2023-03-03T12:25:47.105Z,10.63
2023-03-03T12:28:18.606Z,10.60
2023-03-03T12:31:02.077Z,7.83
2023-03-03T12:33:33.460Z,6.60
2023-03-03T12:36:11.198Z,6.77
2023-03-03T12:38:42.640Z,7.77
2023-03-03T12:41:15.150Z,12.60
2023-03-03T12:43:48.429Z,9.07
2023-03-03T12:46:20.748Z,10.13
2023-03-03T12:48:48.962Z,9.07
2023-03-03T12:51:22.543Z,11.57
2023-03-03T12:53:57.832Z,7.07
2023-03-03T12:56:27.335Z,5.77
2023-03-03T12:59:01.113Z,10.10
2023-03-03T13:01:34.917Z,9.47
2023-03-03T13:04:06.115Z,11.17
2023-03-03T13:06:37.709Z,5.47
2023-03-03T13:09:16.080Z,12.80
2023-03-03T13:11:46.972Z,5.53
2023-03-03T13:14:18.615Z,8.27
2023-03-03T13:16:49.737Z,10.47
2023-03-03T13:19:19.137Z,9.90
2023-03-03T13:21:50.182Z,11.33
2023-03-03T13:24:20.491Z,7.07
2023-03-03T13:26:51.348Z,9.83
2023-03-03T13:29:22.146Z,11.17
2023-03-03T13:31:52.438Z,10.60
2023-03-03T13:34:24.731Z,9.43
2023-03-03T13:36:57.281Z,7.80
2023-03-03T13:39:28.257Z,10.00
2023-03-03T13:41:58.336Z,9.33
2023-03-03T13:44:27.095Z,8.53
2023-03-03T13:46:59.568Z,6.53
2023-03-03T13:49:30.977Z,12.07
2023-03-03T13:52:03.185Z,8.70
2023-03-03T13:54:43.413Z,9.23
2023-03-03T13:57:19.741Z,9.33
2023-03-03T13:59:52.389Z,9.77
2023-03-03T14:02:38.741Z,10.40
2023-03-03T14:05:12.763Z,7.63
2023-03-03T14:07:45.914Z,7.50
2023-03-03T14:10:19.290Z,8.07
2023-03-03T14:12:52.292Z,5.73
2023-03-03T14:15:23.831Z,10.07
2023-03-03T14:17:57.768Z,15.30
2023-03-03T14:20:27.965Z,9.83
2023-03-03T14:22:58.004Z,13.10
2023-03-03T14:25:25.438Z,12.43
2023-03-03T14:28:01.579Z,9.93
2023-03-03T14:30:30.244Z,10.63
2023-03-03T14:33:02.019Z,11.43
2023-03-03T14:35:31.324Z,7.03
2023-03-03T14:38:04.451Z,5.43
2023-03-03T14:40:33.018Z,7.70
2023-03-03T14:43:01.884Z,8.70
2023-03-03T14:45:36.111Z,6.80
2023-03-03T14:48:11.309Z,8.73
2023-03-03T14:50:39.829Z,6.70
2023-03-03T14:53:14.015Z,9.37
2023-03-03T14:55:42.344Z,6.17
2023-03-03T14:58:25.130Z,9.17
2023-03-03T15:00:53.044Z,6.40
2023-03-03T15:03:22.864Z,6.33
2023-03-03T15:05:51.032Z,6.97
2023-03-03T15:08:25.642Z,3.97
2023-03-03T15:10:53.053Z,5.70
2023-03-03T15:13:29.294Z,8.53
2023-03-03T15:16:03.450Z,9.13
2023-03-03T15:18:33.379Z,6.17
2023-03-03T15:21:04.317Z,8.67
2023-03-03T15:23:45.917Z,8.30
2023-03-03T15:26:15.959Z,6.40
2023-03-03T15:28:49.735Z,8.87
2023-03-03T15:31:23.211Z,7.67
2023-03-03T15:33:58.898Z,10.47
2023-03-03T15:36:32.235Z,7.17
2023-03-03T15:39:04.724Z,9.10
2023-03-03T15:41:38.651Z,8.87
2023-03-03T15:44:15.400Z,10.60
2023-03-03T15:46:52.532Z,8.77
2023-03-03T15:49:28.934Z,10.87
2023-03-03T15:52:05.568Z,10.33
2023-03-03T15:54:40.879Z,12.77
2023-03-03T15:57:16.485Z,13.23
2023-03-03T15:59:51.022Z,13.43
2023-03-03T16:02:20.182Z,11.67
2023-03-03T16:05:00.322Z,15.07
2023-03-03T16:07:31.832Z,12.30
2023-03-03T16:10:04.571Z,15.13
2023-03-03T16:12:34.568Z,13.80
2023-03-03T16:15:16.094Z,15.73
2023-03-03T16:17:45.377Z,19.07
2023-03-03T16:20:20.645Z,13.00
2023-03-03T16:22:57.065Z,17.60
2023-03-03T16:25:34.955Z,18.23
2023-03-03T16:28:05.536Z,18.20
2023-03-03T16:30:34.106Z,18.97
2023-03-03T16:33:09.682Z,22.20
2023-03-03T16:35:39.806Z,18.23
2023-03-03T16:38:10.338Z,23.03
2023-03-03T16:40:44.015Z,13.07
2023-03-03T16:43:18.536Z,24.47
2023-03-03T16:45:46.153Z,27.10
2023-03-03T16:48:22.000Z,23.60
2023-03-03T16:50:55.486Z,21.83
2023-03-03T16:53:27.440Z,24.83
2023-03-03T16:56:00.635Z,27.27
2023-03-03T16:58:32.818Z,24.63
2023-03-03T17:01:05.256Z,22.20
2023-03-03T17:03:41.324Z,31.47
2023-03-03T17:06:14.422Z,57.30
2023-03-03T17:08:49.235Z,52.20
2023-03-03T17:11:23.500Z,19.87
2023-03-03T17:14:06.817Z,34.30
2023-03-03T17:16:51.583Z,34.07
2023-03-03T17:19:24.238Z,32.33
2023-03-03T17:21:58.312Z,32.63
2023-03-03T17:24:29.497Z,19.70
2023-03-03T17:27:04.104Z,27.57
2023-03-03T17:29:42.343Z,37.37
2023-03-03T17:32:16.921Z,34.50
2023-03-03T17:34:48.970Z,31.67
2023-03-03T17:37:21.882Z,40.47
2023-03-03T17:39:56.581Z,30.70
2023-03-03T17:42:31.541Z,29.40
2023-03-03T17:45:03.234Z,34.77
2023-03-03T17:47:39.681Z,28.13
2023-03-03T17:50:14.054Z,28.73
2023-03-03T17:52:50.979Z,26.87
2023-03-03T17:55:23.767Z,16.47
2023-03-03T17:57:59.807Z,19.00
2023-03-03T18:00:34.091Z,22.43
2023-03-03T18:03:13.380Z,28.30
2023-03-03T18:05:47.409Z,27.63
2023-03-03T18:08:22.363Z,31.03
2023-03-03T18:11:01.049Z,36.40
2023-03-03T18:13:43.397Z,38.57
2023-03-03T18:16:20.035Z,38.60
2023-03-03T18:19:00.546Z,37.03
2023-03-03T18:21:29.013Z,14.73
2023-03-03T18:24:11.276Z,53.57
2023-03-03T18:26:39.456Z,31.63
2023-03-03T18:29:10.815Z,32.17
2023-03-03T18:31:47.304Z,30.87
2023-03-03T18:34:28.465Z,28.87
2023-03-03T18:36:56.641Z,32.83
2023-03-03T18:39:45.577Z,30.37
2023-03-03T18:42:31.914Z,35.17
2023-03-03T18:45:10.819Z,34.53
2023-03-03T18:47:56.904Z,31.67
2023-03-03T18:50:31.127Z,31.17
2023-03-03T18:53:28.849Z,36.57
2023-03-03T18:55:57.387Z,33.07
2023-03-03T18:58:32.366Z,32.90
2023-03-03T19:01:03.545Z,25.57
2023-03-03T19:03:33.702Z,30.43
2023-03-03T19:06:02.506Z,32.20
2023-03-03T19:08:30.632Z,37.50
2023-03-03T19:10:59.141Z,32.80
2023-03-03T19:13:43.120Z,43.17
2023-03-03T19:16:11.984Z,37.70
2023-03-03T19:18:59.524Z,37.70
2023-03-03T19:21:28.212Z,41.57
2023-03-03T19:23:59.871Z,38.30
2023-03-03T19:27:00.377Z,32.40
2023-03-03T19:29:45.451Z,38.27
2023-03-03T19:32:21.705Z,32.60
2023-03-03T19:34:52.121Z,36.53
2023-03-03T19:37:28.181Z,34.20
2023-03-03T19:40:01.290Z,34.70
2023-03-03T19:42:34.666Z,33.53
2023-03-03T19:45:09.596Z,33.80
2023-03-03T19:47:41.599Z,36.63
2023-03-03T19:50:18.491Z,40.00
2023-03-03T19:52:50.846Z,38.73
2023-03-03T19:55:24.455Z,37.20
2023-03-03T19:57:58.151Z,28.30
2023-03-03T20:00:29.930Z,30.57
2023-03-03T20:03:04.333Z,27.73
2023-03-03T20:05:35.630Z,37.57
2023-03-03T20:08:05.183Z,26.67
2023-03-03T20:10:38.703Z,36.20
2023-03-03T20:13:12.044Z,37.07
2023-03-03T20:15:42.949Z,34.10
2023-03-03T20:18:22.485Z,25.53
2023-03-03T20:20:57.486Z,28.60
2023-03-03T20:23:28.840Z,31.53
2023-03-03T20:26:00.935Z,38.77
2023-03-03T20:28:47.467Z,36.50
2023-03-03T20:31:17.839Z,35.80
2023-03-03T20:33:50.890Z,29.13
2023-03-03T20:36:22.030Z,34.70
2023-03-03T20:38:55.816Z,31.23
2023-03-03T20:41:27.159Z,26.00
2023-03-03T20:44:00.286Z,35.30
2023-03-03T20:46:31.548Z,34.23
2023-03-03T20:49:12.122Z,30.97
2023-03-03T20:51:42.497Z,32.47
2023-03-03T20:54:14.160Z,13.57
2023-03-03T20:56:44.828Z,40.87
2023-03-03T20:59:17.550Z,14.10
2023-03-03T21:01:49.663Z,30.10
2023-03-03T21:04:23.161Z,37.10
2023-03-03T21:06:50.783Z,40.10
2023-03-03T21:09:26.269Z,25.13
2023-03-03T21:11:53.730Z,37.53
2023-03-03T21:14:22.667Z,42.37
2023-03-03T21:16:50.724Z,37.70
2023-03-03T21:19:26.524Z,4.90
2023-03-03T21:21:54.304Z,39.97
2023-03-03T21:24:21.892Z,47.03
2023-03-03T21:26:50.997Z,24.20
2023-03-03T21:29:29.478Z,42.80
2023-03-03T21:31:58.104Z,38.03
2023-03-03T21:34:31.792Z,37.30
2023-03-03T21:36:59.840Z,17.97
2023-03-03T21:39:29.279Z,38.73
2023-03-03T21:41:58.980Z,37.47
2023-03-03T21:44:30.495Z,45.60
2023-03-03T21:46:58.745Z,38.73
2023-03-03T21:49:26.340Z,46.53
2023-03-03T21:51:55.407Z,42.07
2023-03-03T21:54:22.832Z,34.53
2023-03-03T21:56:50.736Z,40.00
2023-03-03T21:59:18.222Z,33.57
2023-03-03T22:01:45.639Z,46.67
2023-03-03T22:04:13.267Z,39.33
2023-03-03T22:06:41.439Z,34.03
2023-03-03T22:09:10.130Z,37.07
2023-03-03T22:11:38.251Z,44.30
2023-03-03T22:14:05.874Z,48.07
2023-03-03T22:16:33.499Z,42.27
2023-03-03T22:19:02.744Z,43.03
2023-03-03T22:21:30.390Z,42.43
2023-03-03T22:23:58.216Z,31.37
2023-03-03T22:26:26.974Z,49.10
2023-03-03T22:28:54.457Z,43.33
2023-03-03T22:31:22.282Z,44.83
2023-03-03T22:33:50.098Z,45.90
2023-03-03T22:36:18.884Z,41.13
2023-03-03T22:38:46.605Z,45.67
2023-03-03T22:41:14.380Z,40.93
2023-03-03T22:43:43.125Z,51.30
2023-03-03T22:46:11.563Z,40.27
2023-03-03T22:48:39.569Z,43.63
2023-03-03T22:51:07.403Z,41.43
2023-03-03T22:53:34.839Z,48.03
2023-03-03T22:56:02.833Z,50.40
2023-03-03T22:58:30.822Z,31.93
2023-03-03T23:00:59.828Z,46.40
2023-03-03T23:03:27.940Z,39.80
2023-03-03T23:05:55.414Z,41.90
2023-03-03T23:08:23.251Z,40.13
2023-03-03T23:10:50.726Z,36.90
2023-03-03T23:13:18.150Z,30.83
2023-03-03T23:15:45.786Z,37.30
2023-03-03T23:18:14.551Z,46.63
2023-03-03T23:20:45.797Z,33.53
2023-03-03T23:23:13.372Z,45.30
2023-03-03T23:25:41.021Z,24.47
2023-03-03T23:28:08.634Z,36.40
2023-03-03T23:30:36.094Z,36.83
2023-03-03T23:33:03.621Z,33.40
2023-03-03T23:35:32.596Z,37.00
2023-03-03T23:38:00.452Z,34.70
2023-03-03T23:40:28.350Z,39.27
2023-03-03T23:42:55.692Z,42.13
2023-03-03T23:45:23.309Z,35.70
2023-03-03T23:47:50.715Z,36.10
2023-03-03T23:50:18.197Z,32.33
2023-03-03T23:52:47.013Z,24.83
2023-03-03T23:55:14.676Z,30.50
2023-03-03T23:57:42.996Z,13.27
